Time;durP1;ratioP1;P1;durP2;ratioP2;P2;SDS_P1;SDS_P2;PMS_P1;PMS_P2;Temp;Humidity;BMP_temperature;BMP_pressure;BME280_temperature;BME280_humidity;BME280_pressure;Samples;Min_cycle;Max_cycle;Signal;HPM_P1;HPM_P2
2023/05/05 00:01:01;;;;;;;6.10;5.60;;;;;;;;;;5081830;28;20204;-66
2023/05/05 00:03:27;;;;;;;10.63;5.45;;;;;;;;;;5081892;28;20431;-66
2023/05/05 00:05:54;;;;;;;5.88;5.22;;;;;;;;;;5081948;28;20200;-66
2023/05/05 00:08:21;;;;;;;7.78;5.05;;;;;;;;;;5081584;28;20196;-66
2023/05/05 00:10:49;;;;;;;6.05;5.28;;;;;;;;;;5081651;28;20216;-66
2023/05/05 00:13:15;;;;;;;8.27;5.55;;;;;;;;;;5081552;28;20530;-66
2023/05/05 00:15:42;;;;;;;6.55;5.95;;;;;;;;;;5081699;28;20223;-66
2023/05/05 00:18:08;;;;;;;8.38;5.38;;;;;;;;;;5081536;28;20200;-67
2023/05/05 00:20:35;;;;;;;5.18;4.82;;;;;;;;;;5081474;28;20196;-67
2023/05/05 00:23:01;;;;;;;6.10;5.50;;;;;;;;;;5081773;28;20437;-67
2023/05/05 00:25:28;;;;;;;5.78;5.28;;;;;;;;;;5081734;28;20238;-67
2023/05/05 00:27:55;;;;;;;6.50;5.50;;;;;;;;;;5081416;28;20224;-67
2023/05/05 00:30:21;;;;;;;5.82;5.10;;;;;;;;;;5081247;28;20430;-66
2023/05/05 00:32:47;;;;;;;7.13;5.43;;;;;;;;;;5081616;28;20203;-66
2023/05/05 00:35:14;;;;;;;7.13;5.68;;;;;;;;;;5081395;28;20192;-66
2023/05/05 00:37:40;;;;;;;5.85;5.20;;;;;;;;;;5081660;28;20218;-66
2023/05/05 00:40:07;;;;;;;5.88;5.40;;;;;;;;;;5081104;28;20207;-66
2023/05/05 00:42:39;;;;;;;5.80;5.30;;;;;;;;;;5081060;28;20538;-66
2023/05/05 00:45:06;;;;;;;5.78;5.30;;;;;;;;;;5081422;28;20205;-66
2023/05/05 00:47:32;;;;;;;5.35;4.80;;;;;;;;;;5084302;28;20231;-66
2023/05/05 00:49:58;;;;;;;5.70;5.20;;;;;;;;;;5084971;28;20200;-66
2023/05/05 00:52:25;;;;;;;5.60;5.20;;;;;;;;;;5085074;28;20212;-66
2023/05/05 00:54:51;;;;;;;6.82;6.13;;;;;;;;;;5085231;28;20263;-66
2023/05/05 00:57:18;;;;;;;8.30;7.28;;;;;;;;;;5084868;28;20200;-66
2023/05/05 00:59:46;;;;;;;9.25;7.07;;;;;;;;;;5084869;28;20196;-66
2023/05/05 01:02:12;;;;;;;7.90;7.03;;;;;;;;;;5084711;28;20189;-66
2023/05/05 01:04:38;;;;;;;12.50;6.68;;;;;;;;;;5085062;28;20242;-66
2023/05/05 01:07:11;;;;;;;9.13;6.40;;;;;;;;;;5084355;28;20200;-66
2023/05/05 01:09:43;;;;;;;7.43;6.53;;;;;;;;;;5084542;28;20500;-66
2023/05/05 01:12:15;;;;;;;7.05;6.35;;;;;;;;;;5084543;28;20220;-66
2023/05/05 01:14:44;;;;;;;9.55;6.22;;;;;;;;;;5084675;28;20215;-66
2023/05/05 01:17:14;;;;;;;7.35;6.65;;;;;;;;;;5084634;28;20218;-66
2023/05/05 01:20:02;;;;;;;7.07;6.30;;;;;;;;;;5084537;28;20191;-66
2023/05/05 01:22:37;;;;;;;7.75;5.70;;;;;;;;;;5076671;28;20201;-66
2023/05/05 01:25:11;;;;;;;8.90;7.00;;;;;;;;;;5084412;28;20200;-66
2023/05/05 01:27:55;;;;;;;8.23;6.22;;;;;;;;;;5084855;28;20216;-66
2023/05/05 01:30:28;;;;;;;12.40;6.50;;;;;;;;;;5084245;28;20200;-66
2023/05/05 01:32:57;;;;;;;8.30;6.95;;;;;;;;;;5084275;28;20207;-66
2023/05/05 01:35:27;;;;;;;8.43;6.38;;;;;;;;;;5084386;28;20200;-66
2023/05/05 01:37:57;;;;;;;7.93;6.53;;;;;;;;;;5084348;28;20504;-66
2023/05/05 01:40:25;;;;;;;7.93;6.78;;;;;;;;;;5084079;28;20226;-66
2023/05/05 01:42:52;;;;;;;12.73;7.03;;;;;;;;;;5084163;28;20235;-66
2023/05/05 01:45:20;;;;;;;9.35;6.85;;;;;;;;;;5083932;28;20246;-66
2023/05/05 01:47:46;;;;;;;8.70;7.10;;;;;;;;;;5084216;28;20235;-66
2023/05/05 01:50:14;;;;;;;7.70;7.07;;;;;;;;;;5083947;28;20246;-66
2023/05/05 01:52:41;;;;;;;8.73;7.25;;;;;;;;;;5084063;28;20411;-66
2023/05/05 01:55:09;;;;;;;9.05;7.20;;;;;;;;;;5083908;28;20430;-66
2023/05/05 01:57:36;;;;;;;7.55;6.78;;;;;;;;;;5083801;28;20208;-66
2023/05/05 02:00:03;;;;;;;7.97;6.93;;;;;;;;;;5084053;28;20201;-66
2023/05/05 02:02:30;;;;;;;10.07;7.28;;;;;;;;;;5083998;28;20192;-66
2023/05/05 02:04:57;;;;;;;8.45;6.07;;;;;;;;;;5083835;28;20196;-66
2023/05/05 02:07:25;;;;;;;11.18;6.65;;;;;;;;;;5083676;28;20528;-66
2023/05/05 02:09:52;;;;;;;7.32;6.60;;;;;;;;;;5083583;28;20200;-66
2023/05/05 02:12:19;;;;;;;10.57;6.95;;;;;;;;;;5083393;28;20261;-66
2023/05/05 02:14:45;;;;;;;7.13;6.40;;;;;;;;;;5083598;28;20204;-66
2023/05/05 02:17:12;;;;;;;7.00;6.43;;;;;;;;;;5083560;28;20204;-66
2023/05/05 02:19:38;;;;;;;10.77;6.50;;;;;;;;;;5083463;28;20205;-67
2023/05/05 02:22:05;;;;;;;7.13;6.15;;;;;;;;;;5083515;28;20266;-67
2023/05/05 02:24:32;;;;;;;8.63;6.95;;;;;;;;;;5075294;28;20196;-67
2023/05/05 02:26:59;;;;;;;8.40;6.65;;;;;;;;;;5083145;28;20238;-67
2023/05/05 02:29:28;;;;;;;7.95;6.75;;;;;;;;;;5083379;28;20216;-66
2023/05/05 02:31:59;;;;;;;7.25;6.55;;;;;;;;;;5083347;28;20258;-66
2023/05/05 02:34:27;;;;;;;8.20;6.70;;;;;;;;;;5083239;28;20261;-66
2023/05/05 02:36:55;;;;;;;10.05;7.43;;;;;;;;;;5083038;28;20192;-66
2023/05/05 02:39:24;;;;;;;7.32;6.63;;;;;;;;;;5082789;28;20450;-66
2023/05/05 02:41:53;;;;;;;8.13;7.32;;;;;;;;;;5083205;28;20196;-66
2023/05/05 02:44:19;;;;;;;9.88;6.80;;;;;;;;;;5083316;28;20243;-66
2023/05/05 02:46:46;;;;;;;7.20;6.22;;;;;;;;;;5083071;28;20205;-66
2023/05/05 02:49:12;;;;;;;8.32;6.70;;;;;;;;;;5082530;28;20244;-66
2023/05/05 02:51:38;;;;;;;8.38;6.53;;;;;;;;;;5082719;28;20446;-67
2023/05/05 02:54:04;;;;;;;7.65;6.68;;;;;;;;;;5083241;28;20204;-67
2023/05/05 02:56:34;;;;;;;7.85;6.90;;;;;;;;;;5082818;28;20200;-67
2023/05/05 02:59:08;;;;;;;7.22;6.53;;;;;;;;;;5082841;28;20434;-67
2023/05/05 03:01:38;;;;;;;6.78;6.28;;;;;;;;;;5074537;28;20192;-66
2023/05/05 03:04:06;;;;;;;8.60;6.13;;;;;;;;;;5082717;28;20270;-66
2023/05/05 03:06:36;;;;;;;7.20;6.47;;;;;;;;;;5082440;28;20234;-66
2023/05/05 03:09:05;;;;;;;7.13;6.30;;;;;;;;;;5082205;28;20200;-66
2023/05/05 03:11:32;;;;;;;6.55;6.03;;;;;;;;;;5082094;28;20298;-66
2023/05/05 03:14:08;;;;;;;6.57;5.97;;;;;;;;;;5082376;28;20204;-66
2023/05/05 03:16:35;;;;;;;7.55;5.78;;;;;;;;;;5074113;28;20203;-66
2023/05/05 03:19:02;;;;;;;6.80;6.20;;;;;;;;;;5082148;28;20401;-66
2023/05/05 03:21:29;;;;;;;6.50;5.95;;;;;;;;;;5082237;28;20434;-66
2023/05/05 03:23:55;;;;;;;7.20;6.60;;;;;;;;;;5082436;28;20242;-66
2023/05/05 03:26:21;;;;;;;6.63;6.13;;;;;;;;;;5082318;28;20200;-66
2023/05/05 03:28:47;;;;;;;7.22;6.50;;;;;;;;;;5082160;28;20265;-66
2023/05/05 03:31:15;;;;;;;6.82;6.13;;;;;;;;;;5081862;28;20364;-66
2023/05/05 03:33:41;;;;;;;6.85;6.13;;;;;;;;;;5082093;28;20208;-66
2023/05/05 03:36:08;;;;;;;7.25;6.55;;;;;;;;;;5082311;28;20200;-66
2023/05/05 03:38:34;;;;;;;7.18;6.47;;;;;;;;;;5081972;28;20234;-66
2023/05/05 03:41:00;;;;;;;10.30;6.72;;;;;;;;;;5081940;28;20268;-67
2023/05/05 03:43:27;;;;;;;7.45;6.43;;;;;;;;;;5081954;28;20208;-67
2023/05/05 03:45:54;;;;;;;10.18;7.93;;;;;;;;;;5081924;28;20201;-67
2023/05/05 03:48:21;;;;;;;10.65;7.35;;;;;;;;;;5082122;28;20554;-67
2023/05/05 03:50:48;;;;;;;7.22;6.45;;;;;;;;;;5081752;28;20204;-67
2023/05/05 03:53:14;;;;;;;6.70;5.95;;;;;;;;;;5081794;28;20594;-66
2023/05/05 03:55:40;;;;;;;7.20;6.50;;;;;;;;;;5081890;28;20504;-66
2023/05/05 03:58:06;;;;;;;8.23;7.05;;;;;;;;;;5081722;28;20231;-66
2023/05/05 04:00:33;;;;;;;7.15;6.55;;;;;;;;;;5081427;28;20220;-66
2023/05/05 04:02:59;;;;;;;9.65;6.55;;;;;;;;;;5082036;28;20496;-66
2023/05/05 04:05:27;;;;;;;8.43;7.00;;;;;;;;;;5081954;28;20430;-66
2023/05/05 04:07:53;;;;;;;8.98;7.35;;;;;;;;;;5081816;28;20500;-67
2023/05/05 04:10:20;;;;;;;12.27;7.80;;;;;;;;;;5081602;28;20204;-67
2023/05/05 04:12:46;;;;;;;10.88;7.60;;;;;;;;;;5081586;28;20216;-66
2023/05/05 04:15:12;;;;;;;8.07;7.35;;;;;;;;;;5081516;28;20438;-68
2023/05/05 04:17:39;;;;;;;9.55;7.57;;;;;;;;;;5073663;28;20196;-68
2023/05/05 04:20:06;;;;;;;8.25;6.97;;;;;;;;;;5081661;28;20204;-68
2023/05/05 04:22:33;;;;;;;10.40;8.05;;;;;;;;;;5084962;28;20529;-67
2023/05/05 04:25:00;;;;;;;8.63;7.75;;;;;;;;;;5085757;28;20211;-67
2023/05/05 04:27:28;;;;;;;8.05;7.20;;;;;;;;;;5085553;28;20226;-67
2023/05/05 04:29:54;;;;;;;7.88;7.25;;;;;;;;;;5085690;28;20264;-67
2023/05/05 04:32:21;;;;;;;10.45;7.47;;;;;;;;;;5085513;28;20228;-67
2023/05/05 04:34:47;;;;;;;8.85;6.95;;;;;;;;;;5085452;28;20504;-67
2023/05/05 04:37:13;;;;;;;8.80;7.57;;;;;;;;;;5085481;28;20227;-67
2023/05/05 04:39:41;;;;;;;8.52;7.32;;;;;;;;;;5069184;28;20196;-67
2023/05/05 04:42:08;;;;;;;8.10;7.25;;;;;;;;;;5085434;28;20211;-67
2023/05/05 04:44:34;;;;;;;9.02;7.25;;;;;;;;;;5085441;28;20208;-67
2023/05/05 04:47:00;;;;;;;10.27;7.72;;;;;;;;;;5085421;28;20434;-67
2023/05/05 04:49:28;;;;;;;8.93;7.25;;;;;;;;;;5085221;28;20200;-68
2023/05/05 04:51:55;;;;;;;8.73;7.93;;;;;;;;;;5085172;28;20220;-68
2023/05/05 04:54:21;;;;;;;10.07;7.40;;;;;;;;;;5085013;28;20200;-68
2023/05/05 04:56:49;;;;;;;8.63;7.32;;;;;;;;;;5085015;28;20200;-68
2023/05/05 04:59:15;;;;;;;9.32;6.65;;;;;;;;;;5084745;28;20204;-68
2023/05/05 05:01:42;;;;;;;7.95;7.03;;;;;;;;;;5085017;28;20204;-68
2023/05/05 05:04:09;;;;;;;7.32;6.25;;;;;;;;;;5085081;28;20201;-68
2023/05/05 05:06:35;;;;;;;8.60;7.13;;;;;;;;;;5084878;28;20201;-68
2023/05/05 05:09:01;;;;;;;8.15;6.72;;;;;;;;;;5084880;28;20223;-68
2023/05/05 05:11:28;;;;;;;9.20;6.97;;;;;;;;;;5084544;28;20216;-68
2023/05/05 05:13:55;;;;;;;8.32;7.53;;;;;;;;;;5084137;28;20478;-68
2023/05/05 05:16:21;;;;;;;17.52;8.13;;;;;;;;;;5083749;28;20235;-68
2023/05/05 05:18:48;;;;;;;14.60;8.45;;;;;;;;;;5083487;28;20196;-68
2023/05/05 05:21:14;;;;;;;13.52;9.07;;;;;;;;;;5083357;28;20203;-68
2023/05/05 05:23:40;;;;;;;20.75;9.63;;;;;;;;;;5083402;28;20216;-68
2023/05/05 05:26:07;;;;;;;17.38;8.60;;;;;;;;;;5083328;28;20247;-68
2023/05/05 05:28:33;;;;;;;21.13;9.23;;;;;;;;;;5083608;28;20220;-67
2023/05/05 05:31:01;;;;;;;14.63;8.50;;;;;;;;;;5083441;28;20204;-67
2023/05/05 05:33:27;;;;;;;15.32;8.55;;;;;;;;;;5082966;28;20287;-68
2023/05/05 05:35:53;;;;;;;11.55;8.20;;;;;;;;;;5083370;28;20239;-68
2023/05/05 05:38:19;;;;;;;13.38;8.63;;;;;;;;;;5083126;28;20204;-68
2023/05/05 05:40:46;;;;;;;11.10;7.78;;;;;;;;;;5083075;28;20196;-68
2023/05/05 05:43:12;;;;;;;10.60;7.50;;;;;;;;;;5083307;28;20196;-68
2023/05/05 05:45:38;;;;;;;10.85;7.80;;;;;;;;;;5083162;28;20205;-68
2023/05/05 05:48:06;;;;;;;8.95;7.47;;;;;;;;;;5083146;28;20212;-68
2023/05/05 05:50:34;;;;;;;9.02;7.18;;;;;;;;;;5082668;28;20246;-68
2023/05/05 05:53:00;;;;;;;9.13;7.50;;;;;;;;;;5083339;28;20220;-68
2023/05/05 05:55:27;;;;;;;10.65;7.18;;;;;;;;;;5083216;28;20217;-68
2023/05/05 05:57:53;;;;;;;12.18;7.15;;;;;;;;;;5082933;28;20196;-68
2023/05/05 06:00:19;;;;;;;9.05;7.00;;;;;;;;;;5082742;28;20204;-68
2023/05/05 06:02:45;;;;;;;9.75;7.55;;;;;;;;;;5082963;28;20554;-67
2023/05/05 06:05:13;;;;;;;11.18;7.95;;;;;;;;;;5082904;28;20212;-67
2023/05/05 06:07:39;;;;;;;7.90;7.10;;;;;;;;;;5082534;28;20246;-67
2023/05/05 06:10:06;;;;;;;7.70;7.00;;;;;;;;;;5082634;28;20250;-67
2023/05/05 06:12:32;;;;;;;7.30;6.70;;;;;;;;;;5082591;28;20277;-67
2023/05/05 06:14:58;;;;;;;7.75;6.88;;;;;;;;;;5047626;28;1026035;-67
2023/05/05 06:17:24;;;;;;;7.40;6.75;;;;;;;;;;5083569;28;20380;-67
2023/05/05 06:19:51;;;;;;;7.30;6.60;;;;;;;;;;5083393;28;20197;-67
2023/05/05 06:22:18;;;;;;;6.22;5.70;;;;;;;;;;5083562;28;20204;-71
2023/05/05 06:24:45;;;;;;;9.20;7.05;;;;;;;;;;5083853;28;20196;-71
2023/05/05 06:27:11;;;;;;;15.73;10.10;;;;;;;;;;5083723;28;20220;-71
2023/05/05 06:29:37;;;;;;;7.95;7.15;;;;;;;;;;5083527;28;20435;-71
2023/05/05 06:32:06;;;;;;;8.18;6.25;;;;;;;;;;5083486;28;20212;-71
2023/05/05 06:34:32;;;;;;;13.45;6.22;;;;;;;;;;5083480;28;20200;-72
2023/05/05 06:36:58;;;;;;;7.05;6.35;;;;;;;;;;5083232;28;20204;-72
2023/05/05 06:39:26;;;;;;;6.57;5.95;;;;;;;;;;5083285;28;20254;-72
2023/05/05 06:41:52;;;;;;;10.18;6.88;;;;;;;;;;5083407;28;20226;-72
2023/05/05 06:44:18;;;;;;;7.10;5.82;;;;;;;;;;5082493;28;20310;-72
2023/05/05 06:46:45;;;;;;;7.68;6.72;;;;;;;;;;5083463;28;20196;-72
2023/05/05 06:49:11;;;;;;;7.57;6.70;;;;;;;;;;5083060;28;20215;-72
2023/05/05 06:51:37;;;;;;;6.85;5.90;;;;;;;;;;5083229;28;20568;-72
2023/05/05 06:54:04;;;;;;;7.13;6.10;;;;;;;;;;5083025;28;20552;-72
2023/05/05 06:56:31;;;;;;;7.55;5.80;;;;;;;;;;5082747;28;20201;-72
2023/05/05 06:58:57;;;;;;;7.45;5.95;;;;;;;;;;5082816;28;20224;-71
2023/05/05 07:01:24;;;;;;;6.85;6.07;;;;;;;;;;5082540;28;20238;-71
2023/05/05 07:03:51;;;;;;;8.93;5.43;;;;;;;;;;5082717;28;20230;-71
2023/05/05 07:06:17;;;;;;;6.30;5.15;;;;;;;;;;5082759;28;20206;-71
2023/05/05 07:08:43;;;;;;;8.52;5.45;;;;;;;;;;5082690;28;20376;-71
2023/05/05 07:11:09;;;;;;;6.90;5.20;;;;;;;;;;5082533;28;20204;-71
2023/05/05 07:13:37;;;;;;;6.53;5.20;;;;;;;;;;5082565;28;20234;-71
2023/05/05 07:16:03;;;;;;;6.53;5.93;;;;;;;;;;5082616;28;20246;-71
2023/05/05 07:18:29;;;;;;;7.88;5.80;;;;;;;;;;5082710;28;20204;-71
2023/05/05 07:20:56;;;;;;;7.40;6.07;;;;;;;;;;5082638;28;20196;-71
2023/05/05 07:23:22;;;;;;;9.35;6.20;;;;;;;;;;5082836;28;20204;-71
2023/05/05 07:25:48;;;;;;;10.07;5.55;;;;;;;;;;5082568;28;20430;-71
2023/05/05 07:28:15;;;;;;;7.65;5.75;;;;;;;;;;5082321;28;20593;-71
2023/05/05 07:30:42;;;;;;;7.78;5.93;;;;;;;;;;5082000;28;20207;-71
2023/05/05 07:33:10;;;;;;;5.75;5.25;;;;;;;;;;5082153;28;20250;-71
2023/05/05 07:35:36;;;;;;;6.13;5.63;;;;;;;;;;5082102;28;20205;-71
2023/05/05 07:38:02;;;;;;;5.97;4.63;;;;;;;;;;5082192;28;20200;-71
2023/05/05 07:40:28;;;;;;;6.97;4.78;;;;;;;;;;5082136;28;20215;-72
2023/05/05 07:42:55;;;;;;;4.80;4.50;;;;;;;;;;5082299;28;20234;-71
2023/05/05 07:45:21;;;;;;;9.30;4.88;;;;;;;;;;5082247;28;20258;-71
2023/05/05 07:47:49;;;;;;;6.53;4.82;;;;;;;;;;5081989;28;20208;-71
2023/05/05 07:50:15;;;;;;;9.18;5.40;;;;;;;;;;5081864;28;20200;-70
2023/05/05 07:52:41;;;;;;;6.20;4.72;;;;;;;;;;5082010;28;20220;-70
2023/05/05 07:55:07;;;;;;;8.68;5.35;;;;;;;;;;5081830;28;20200;-70
2023/05/05 07:57:34;;;;;;;5.63;4.75;;;;;;;;;;5082127;28;20261;-70
2023/05/05 08:00:00;;;;;;;7.93;4.22;;;;;;;;;;5081757;28;20258;-72
2023/05/05 08:02:26;;;;;;;7.13;4.40;;;;;;;;;;5081869;28;20270;-72
2023/05/05 08:04:54;;;;;;;7.03;4.38;;;;;;;;;;5082093;28;20558;-72
2023/05/05 08:07:20;;;;;;;5.05;4.40;;;;;;;;;;5081905;28;20200;-72
2023/05/05 08:09:46;;;;;;;7.57;3.88;;;;;;;;;;5081622;28;20433;-72
2023/05/05 08:12:14;;;;;;;5.45;4.20;;;;;;;;;;5081924;28;20212;-72
2023/05/05 08:14:41;;;;;;;10.68;4.63;;;;;;;;;;5081476;28;20230;-72
2023/05/05 08:17:07;;;;;;;6.53;4.00;;;;;;;;;;5082067;28;20234;-72
2023/05/05 08:19:33;;;;;;;12.60;4.20;;;;;;;;;;5081771;28;20207;-72
2023/05/05 08:22:01;;;;;;;7.97;4.28;;;;;;;;;;5081984;28;20504;-71
2023/05/05 08:24:27;;;;;;;7.10;3.95;;;;;;;;;;5081858;28;20423;-71
2023/05/05 08:26:54;;;;;;;6.00;3.40;;;;;;;;;;5081744;28;20678;-71
2023/05/05 08:29:20;;;;;;;7.30;3.53;;;;;;;;;;5081676;28;20200;-71
2023/05/05 08:31:47;;;;;;;3.60;3.33;;;;;;;;;;5081831;28;20515;-71
2023/05/05 08:34:13;;;;;;;5.88;3.58;;;;;;;;;;5081601;28;20224;-71
2023/05/05 08:36:39;;;;;;;3.63;2.30;;;;;;;;;;5082010;28;20418;-71
2023/05/05 08:39:07;;;;;;;3.75;2.45;;;;;;;;;;5081559;28;20547;-71
2023/05/05 08:41:33;;;;;;;4.65;2.33;;;;;;;;;;5081340;28;20207;-71
2023/05/05 08:43:59;;;;;;;2.08;1.98;;;;;;;;;;5081591;28;20201;-71
2023/05/05 08:46:26;;;;;;;2.58;2.38;;;;;;;;;;5081675;28;20235;-71
2023/05/05 08:48:54;;;;;;;2.10;2.00;;;;;;;;;;5081421;28;20271;-71
2023/05/05 08:51:21;;;;;;;1.92;1.83;;;;;;;;;;5081377;28;20235;-71
2023/05/05 08:53:51;;;;;;;2.33;2.13;;;;;;;;;;5081228;28;20261;-71
2023/05/05 08:56:19;;;;;;;3.85;1.98;;;;;;;;;;5081330;28;20230;-71
2023/05/05 08:58:47;;;;;;;4.93;2.03;;;;;;;;;;5081473;28;20246;-71
2023/05/05 09:01:13;;;;;;;1.60;1.50;;;;;;;;;;5081442;28;20210;-71
2023/05/05 09:03:40;;;;;;;3.47;2.03;;;;;;;;;;5081367;28;20233;-72
2023/05/05 09:06:06;;;;;;;3.30;2.10;;;;;;;;;;5081381;28;20215;-72
2023/05/05 09:08:32;;;;;;;3.85;1.80;;;;;;;;;;5084162;28;20262;-72
2023/05/05 09:11:00;;;;;;;1.90;1.77;;;;;;;;;;5084742;28;20200;-72
2023/05/05 09:13:27;;;;;;;2.33;1.85;;;;;;;;;;5084856;28;20224;-71
2023/05/05 09:15:54;;;;;;;3.40;2.28;;;;;;;;;;5085180;28;20243;-71
2023/05/05 09:18:20;;;;;;;3.45;2.80;;;;;;;;;;5084898;28;20200;-71
2023/05/05 09:20:46;;;;;;;7.05;3.80;;;;;;;;;;5084679;28;20201;-71
2023/05/05 09:23:13;;;;;;;8.27;2.97;;;;;;;;;;5084782;28;20430;-71
2023/05/05 09:25:39;;;;;;;9.73;3.40;;;;;;;;;;5084572;28;20200;-71
2023/05/05 09:28:09;;;;;;;6.22;2.95;;;;;;;;;;5084745;28;20227;-71
2023/05/05 09:30:37;;;;;;;4.68;2.47;;;;;;;;;;5084601;28;20609;-71
2023/05/05 09:33:03;;;;;;;2.53;2.35;;;;;;;;;;5084536;28;20208;-71
2023/05/05 09:35:46;;;;;;;6.25;2.30;;;;;;;;;;5084593;28;20207;-71
2023/05/05 09:38:13;;;;;;;3.03;2.20;;;;;;;;;;5078700;28;20304;-71
2023/05/05 09:40:44;;;;;;;3.63;2.33;;;;;;;;;;5084536;28;20554;-71
2023/05/05 09:43:10;;;;;;;4.18;2.05;;;;;;;;;;5084716;28;20207;-71
2023/05/05 09:45:38;;;;;;;3.10;2.17;;;;;;;;;;5084371;28;20238;-71
2023/05/05 09:48:05;;;;;;;3.97;2.20;;;;;;;;;;5084328;28;20234;-71
2023/05/05 09:50:42;;;;;;;2.58;2.10;;;;;;;;;;5084181;28;20204;-71
2023/05/05 09:53:09;;;;;;;1.77;1.70;;;;;;;;;;5077578;28;20267;-71
2023/05/05 09:55:36;;;;;;;2.22;1.80;;;;;;;;;;5084538;28;20201;-71
2023/05/05 09:58:16;;;;;;;1.70;1.55;;;;;;;;;;5084204;28;20490;-71
2023/05/05 10:00:44;;;;;;;5.80;1.88;;;;;;;;;;5083935;28;20216;-71
2023/05/05 10:03:11;;;;;;;1.50;1.50;;;;;;;;;;5084032;28;20523;-71
2023/05/05 10:05:46;;;;;;;1.70;1.70;;;;;;;;;;5083870;28;20200;-71
2023/05/05 10:08:12;;;;;;;1.65;1.55;;;;;;;;;;5084042;28;20538;-71
2023/05/05 10:10:41;;;;;;;2.85;1.85;;;;;;;;;;5083841;28;20652;-71
2023/05/05 10:13:08;;;;;;;2.63;1.70;;;;;;;;;;5083677;28;20208;-71
2023/05/05 10:15:34;;;;;;;1.45;1.38;;;;;;;;;;5083640;28;20498;-71
2023/05/05 10:18:03;;;;;;;3.25;1.30;;;;;;;;;;5083225;28;20220;-71
2023/05/05 10:20:31;;;;;;;1.63;1.52;;;;;;;;;;5082952;28;20235;-71
2023/05/05 10:22:58;;;;;;;3.08;1.88;;;;;;;;;;5083692;28;20212;-71
2023/05/05 10:25:28;;;;;;;2.33;1.85;;;;;;;;;;5083539;28;20204;-71
2023/05/05 10:27:55;;;;;;;1.60;1.50;;;;;;;;;;5083264;28;20265;-71
2023/05/05 10:30:23;;;;;;;4.00;1.60;;;;;;;;;;5083180;28;20204;-71
2023/05/05 10:32:50;;;;;;;4.15;2.08;;;;;;;;;;5083467;28;20223;-71
2023/05/05 10:35:21;;;;;;;2.58;1.88;;;;;;;;;;5083357;28;20253;-71
2023/05/05 10:37:47;;;;;;;2.88;1.70;;;;;;;;;;5083346;28;20227;-72
2023/05/05 10:40:13;;;;;;;3.35;1.63;;;;;;;;;;5083126;28;20207;-72
2023/05/05 10:42:40;;;;;;;1.30;1.30;;;;;;;;;;5083128;28;20201;-72
2023/05/05 10:45:07;;;;;;;1.58;1.40;;;;;;;;;;5083386;28;20429;-72
2023/05/05 10:47:34;;;;;;;1.70;1.60;;;;;;;;;;5083119;28;20200;-72
2023/05/05 10:50:04;;;;;;;1.70;1.30;;;;;;;;;;5083061;28;20372;-72
2023/05/05 10:52:35;;;;;;;2.72;1.20;;;;;;;;;;5083037;28;20200;-72
2023/05/05 10:55:07;;;;;;;4.07;1.60;;;;;;;;;;5074785;28;20290;-72
2023/05/05 10:57:35;;;;;;;1.10;1.10;;;;;;;;;;5083050;28;20207;-71
2023/05/05 11:00:01;;;;;;;3.75;1.73;;;;;;;;;;5074936;28;20282;-71
2023/05/05 11:02:28;;;;;;;1.92;1.50;;;;;;;;;;5082886;28;20268;-71
2023/05/05 11:05:04;;;;;;;3.60;1.80;;;;;;;;;;5082681;28;20202;-71
2023/05/05 11:07:32;;;;;;;1.73;1.65;;;;;;;;;;5082609;28;20200;-71
2023/05/05 11:10:01;;;;;;;2.30;1.73;;;;;;;;;;5082661;28;20200;-71
2023/05/05 11:12:27;;;;;;;2.40;2.20;;;;;;;;;;5082939;28;20200;-71
2023/05/05 11:15:12;;;;;;;2.60;2.30;;;;;;;;;;5082394;28;20220;-71
2023/05/05 11:17:45;;;;;;;2.28;2.17;;;;;;;;;;5082409;28;20229;-71
2023/05/05 11:20:11;;;;;;;1.80;1.70;;;;;;;;;;5082180;28;20207;-71
2023/05/05 11:22:52;;;;;;;2.03;1.85;;;;;;;;;;5082664;28;20246;-71
2023/05/05 11:25:33;;;;;;;2.00;1.30;;;;;;;;;;5082533;28;20218;-71
2023/05/05 11:28:07;;;;;;;1.65;1.50;;;;;;;;;;5081940;28;20257;-71
2023/05/05 11:30:34;;;;;;;1.95;1.50;;;;;;;;;;5081974;28;20443;-71
2023/05/05 11:33:19;;;;;;;2.28;1.63;;;;;;;;;;5082451;28;20237;-71
2023/05/05 11:35:54;;;;;;;1.65;1.55;;;;;;;;;;5082199;28;20565;-71
2023/05/05 11:38:22;;;;;;;2.15;1.45;;;;;;;;;;5082636;28;20499;-71
2023/05/05 11:40:49;;;;;;;1.80;1.50;;;;;;;;;;5081824;28;20242;-71
2023/05/05 11:43:19;;;;;;;1.50;1.40;;;;;;;;;;5081978;28;20199;-71
2023/05/05 11:45:45;;;;;;;2.33;1.38;;;;;;;;;;5082246;28;20192;-71
2023/05/05 11:48:24;;;;;;;1.63;1.30;;;;;;;;;;5082196;28;20203;-71
2023/05/05 11:50:51;;;;;;;1.85;1.50;;;;;;;;;;5081913;28;20203;-71
2023/05/05 11:53:18;;;;;;;2.05;1.95;;;;;;;;;;5082055;28;20237;-71
2023/05/05 11:55:44;;;;;;;4.13;2.15;;;;;;;;;;5082164;28;20446;-71
2023/05/05 11:58:21;;;;;;;3.22;1.70;;;;;;;;;;5082260;28;20545;-72
2023/05/05 12:00:47;;;;;;;2.03;1.70;;;;;;;;;;5081803;28;20241;-72
2023/05/05 12:03:14;;;;;;;1.90;1.77;;;;;;;;;;5081971;28;20203;-72
2023/05/05 12:05:40;;;;;;;1.55;1.42;;;;;;;;;;5082479;28;20347;-71
2023/05/05 12:08:06;;;;;;;1.52;1.42;;;;;;;;;;5081944;28;20195;-71
2023/05/05 12:10:33;;;;;;;2.60;1.35;;;;;;;;;;5081810;28;20204;-71
2023/05/05 12:12:59;;;;;;;3.22;1.60;;;;;;;;;;5081793;28;20226;-71
2023/05/05 12:15:33;;;;;;;2.28;1.30;;;;;;;;;;5082072;28;20275;-71
2023/05/05 12:17:59;;;;;;;1.15;1.08;;;;;;;;;;5081879;28;20192;-71
2023/05/05 12:20:32;;;;;;;1.35;1.25;;;;;;;;;;5081785;28;20196;-71
2023/05/05 12:23:04;;;;;;;2.63;1.13;;;;;;;;;;5081693;28;20245;-71
2023/05/05 12:25:34;;;;;;;3.65;1.40;;;;;;;;;;5081829;28;20192;-71
2023/05/05 12:28:01;;;;;;;2.03;1.30;;;;;;;;;;5081553;28;20246;-71
2023/05/05 12:30:27;;;;;;;2.38;1.13;;;;;;;;;;5081625;28;20200;-72
2023/05/05 12:33:01;;;;;;;2.13;1.20;;;;;;;;;;5081548;28;20373;-71
2023/05/05 12:35:28;;;;;;;0.90;0.90;;;;;;;;;;5081801;28;20223;-71
2023/05/05 12:37:54;;;;;;;1.13;1.08;;;;;;;;;;5081588;28;20233;-71
2023/05/05 12:40:40;;;;;;;1.00;1.00;;;;;;;;;;5081523;28;20430;-71
2023/05/05 12:43:06;;;;;;;2.13;1.20;;;;;;;;;;5084050;28;20222;-71
2023/05/05 12:45:32;;;;;;;2.60;1.10;;;;;;;;;;5085345;28;20233;-71
2023/05/05 12:47:58;;;;;;;3.30;1.00;;;;;;;;;;5085245;28;20204;-71
2023/05/05 12:50:32;;;;;;;3.42;1.10;;;;;;;;;;5085463;28;20219;-71
2023/05/05 12:52:58;;;;;;;5.32;1.50;;;;;;;;;;5085384;28;20204;-71
2023/05/05 12:55:35;;;;;;;2.67;1.20;;;;;;;;;;5085334;28;20225;-71
2023/05/05 12:58:03;;;;;;;1.25;1.10;;;;;;;;;;5085195;28;20200;-71
2023/05/05 13:00:29;;;;;;;2.38;1.17;;;;;;;;;;5085306;28;20406;-71
2023/05/05 13:02:56;;;;;;;1.77;1.13;;;;;;;;;;5084937;28;20200;-71
2023/05/05 13:05:29;;;;;;;4.70;1.30;;;;;;;;;;5085219;28;20845;-71
2023/05/05 13:07:57;;;;;;;1.02;1.02;;;;;;;;;;5084993;28;20429;-71
2023/05/05 13:10:23;;;;;;;1.40;1.30;;;;;;;;;;5085322;28;20418;-71
2023/05/05 13:12:50;;;;;;;1.63;1.15;;;;;;;;;;5084958;28;20200;-71
2023/05/05 13:15:16;;;;;;;1.00;1.00;;;;;;;;;;5085049;28;20219;-71
2023/05/05 13:17:43;;;;;;;2.85;1.50;;;;;;;;;;5084847;28;20449;-71
2023/05/05 13:20:10;;;;;;;3.60;1.00;;;;;;;;;;5076898;28;20414;-71
2023/05/05 13:22:36;;;;;;;1.77;1.50;;;;;;;;;;5084849;28;20196;-71
2023/05/05 13:25:04;;;;;;;1.60;1.10;;;;;;;;;;5084502;28;20442;-71
2023/05/05 13:27:30;;;;;;;1.95;1.17;;;;;;;;;;5084465;28;20215;-71
2023/05/05 13:29:57;;;;;;;2.80;1.05;;;;;;;;;;5084563;28;20473;-71
2023/05/05 13:32:23;;;;;;;1.95;1.40;;;;;;;;;;5084491;28;20196;-71
2023/05/05 13:34:49;;;;;;;1.42;1.33;;;;;;;;;;5084406;28;20234;-71
2023/05/05 13:37:15;;;;;;;1.95;1.25;;;;;;;;;;5084410;28;20196;-71
2023/05/05 13:39:42;;;;;;;4.90;1.20;;;;;;;;;;5084171;28;20196;-71
2023/05/05 13:42:09;;;;;;;1.30;1.20;;;;;;;;;;5084609;28;20298;-70
2023/05/05 13:44:35;;;;;;;0.95;0.90;;;;;;;;;;5084246;28;20187;-70
2023/05/05 13:47:02;;;;;;;3.35;1.25;;;;;;;;;;5084324;28;20200;-70
2023/05/05 13:49:28;;;;;;;1.52;1.42;;;;;;;;;;5084318;28;20219;-70
2023/05/05 13:51:55;;;;;;;2.15;1.42;;;;;;;;;;5084315;28;20240;-70
2023/05/05 13:54:21;;;;;;;1.65;1.13;;;;;;;;;;5083749;28;20487;-70
2023/05/05 13:56:47;;;;;;;1.30;1.20;;;;;;;;;;5084308;28;20200;-70
2023/05/05 13:59:15;;;;;;;3.60;1.00;;;;;;;;;;5084222;28;20271;-70
2023/05/05 14:01:41;;;;;;;1.45;1.20;;;;;;;;;;5084292;28;20434;-70
2023/05/05 14:04:07;;;;;;;4.60;1.08;;;;;;;;;;5083936;28;20196;-70
2023/05/05 14:06:34;;;;;;;4.72;1.20;;;;;;;;;;5083929;28;20183;-70
2023/05/05 14:09:00;;;;;;;2.95;1.17;;;;;;;;;;5083703;28;20235;-70
2023/05/05 14:11:27;;;;;;;2.50;1.40;;;;;;;;;;5083968;28;20422;-70
2023/05/05 14:13:53;;;;;;;0.95;0.95;;;;;;;;;;5083889;28;20204;-70
2023/05/05 14:16:20;;;;;;;1.05;1.00;;;;;;;;;;5083815;28;20431;-70
2023/05/05 14:18:47;;;;;;;3.03;1.40;;;;;;;;;;5083781;28;20246;-70
2023/05/05 14:21:13;;;;;;;1.13;1.02;;;;;;;;;;5075346;28;20218;-70
2023/05/05 14:23:39;;;;;;;1.27;1.17;;;;;;;;;;5083873;28;20196;-70
2023/05/05 14:26:07;;;;;;;1.60;1.20;;;;;;;;;;5083831;28;20511;-70
2023/05/05 14:28:33;;;;;;;1.10;1.10;;;;;;;;;;5083584;28;20475;-70
2023/05/05 14:31:00;;;;;;;1.67;1.30;;;;;;;;;;5083525;28;20290;-70
2023/05/05 14:33:27;;;;;;;1.85;1.33;;;;;;;;;;5083652;28;20200;-71
2023/05/05 14:35:55;;;;;;;1.38;1.30;;;;;;;;;;5083492;28;20215;-71
2023/05/05 14:38:21;;;;;;;1.42;1.33;;;;;;;;;;5083705;28;20204;-71
2023/05/05 14:40:47;;;;;;;1.55;1.30;;;;;;;;;;5083706;28;20196;-71
2023/05/05 14:43:13;;;;;;;4.32;3.13;;;;;;;;;;5075497;28;20203;-71